sensor_id;sensor_type;location;lat;lon;timestamp;pressure;altitude;pressure_sealevel;temperature
19102;BMP280;9683;49.028;12.064;2023-05-15T00:02:13;96718.53;;;14.43
19102;BMP280;9683;49.028;12.064;2023-05-15T00:04:40;96708.56;;;14.33
19102;BMP280;9683;49.028;12.064;2023-05-15T00:07:09;96722.56;;;14.45
19102;BMP280;9683;49.028;12.064;2023-05-15T00:09:35;96714.81;;;14.49
19102;BMP280;9683;49.028;12.064;2023-05-15T00:12:02;96708.41;;;14.50
19102;BMP280;9683;49.028;12.064;2023-05-15T00:14:29;96686.09;;;14.34
19102;BMP280;9683;49.028;12.064;2023-05-15T00:16:56;96714.78;;;14.39
19102;BMP280;9683;49.028;12.064;2023-05-15T00:19:22;96705.50;;;14.14
19102;BMP280;9683;49.028;12.064;2023-05-15T00:21:49;96719.94;;;14.08
19102;BMP280;9683;49.028;12.064;2023-05-15T00:24:17;96719.03;;;13.93
19102;BMP280;9683;49.028;12.064;2023-05-15T00:26:43;96702.03;;;13.72
19102;BMP280;9683;49.028;12.064;2023-05-15T00:29:10;96709.28;;;13.76
19102;BMP280;9683;49.028;12.064;2023-05-15T00:31:37;96695.03;;;13.66
19102;BMP280;9683;49.028;12.064;2023-05-15T00:34:03;96719.13;;;13.71
19102;BMP280;9683;49.028;12.064;2023-05-15T00:36:30;96715.59;;;13.65
19102;BMP280;9683;49.028;12.064;2023-05-15T00:38:57;96723.59;;;13.60
19102;BMP280;9683;49.028;12.064;2023-05-15T00:41:25;96718.25;;;13.60
19102;BMP280;9683;49.028;12.064;2023-05-15T00:43:56;96718.94;;;13.46
19102;BMP280;9683;49.028;12.064;2023-05-15T00:46:26;96720.47;;;13.37
19102;BMP280;9683;49.028;12.064;2023-05-15T00:48:53;96710.97;;;13.24
19102;BMP280;9683;49.028;12.064;2023-05-15T00:51:22;96715.16;;;13.15
19102;BMP280;9683;49.028;12.064;2023-05-15T00:53:49;96706.97;;;13.21
19102;BMP280;9683;49.028;12.064;2023-05-15T00:56:17;96712.09;;;13.28
19102;BMP280;9683;49.028;12.064;2023-05-15T00:58:47;96711.09;;;13.34
19102;BMP280;9683;49.028;12.064;2023-05-15T01:01:15;96709.97;;;13.30
19102;BMP280;9683;49.028;12.064;2023-05-15T01:03:42;96709.88;;;13.20
19102;BMP280;9683;49.028;12.064;2023-05-15T01:06:09;96704.72;;;13.13
19102;BMP280;9683;49.028;12.064;2023-05-15T01:08:37;96700.19;;;13.14
19102;BMP280;9683;49.028;12.064;2023-05-15T01:11:07;96713.25;;;13.10
19102;BMP280;9683;49.028;12.064;2023-05-15T01:13:34;96711.31;;;13.06
19102;BMP280;9683;49.028;12.064;2023-05-15T01:16:03;96679.34;;;12.89
19102;BMP280;9683;49.028;12.064;2023-05-15T01:18:30;96708.84;;;12.99
19102;BMP280;9683;49.028;12.064;2023-05-15T01:21:33;96701.63;;;12.73
19102;BMP280;9683;49.028;12.064;2023-05-15T01:24:17;96711.13;;;12.64
19102;BMP280;9683;49.028;12.064;2023-05-15T01:29:54;96701.75;;;12.61
19102;BMP280;9683;49.028;12.064;2023-05-15T01:32:28;96707.16;;;12.66
19102;BMP280;9683;49.028;12.064;2023-05-15T01:35:03;96692.44;;;12.64
19102;BMP280;9683;49.028;12.064;2023-05-15T01:37:32;96710.94;;;12.70
19102;BMP280;9683;49.028;12.064;2023-05-15T01:40:01;96700.06;;;12.77
19102;BMP280;9683;49.028;12.064;2023-05-15T01:42:33;96690.56;;;12.64
19102;BMP280;9683;49.028;12.064;2023-05-15T01:45:03;96702.31;;;12.63
19102;BMP280;9683;49.028;12.064;2023-05-15T01:47:34;96697.41;;;12.55
19102;BMP280;9683;49.028;12.064;2023-05-15T01:50:03;96695.00;;;12.54
19102;BMP280;9683;49.028;12.064;2023-05-15T01:52:34;96695.53;;;12.56
19102;BMP280;9683;49.028;12.064;2023-05-15T01:55:01;96695.84;;;12.59
19102;BMP280;9683;49.028;12.064;2023-05-15T01:57:28;96678.19;;;12.53
19102;BMP280;9683;49.028;12.064;2023-05-15T01:59:57;96684.94;;;12.61
19102;BMP280;9683;49.028;12.064;2023-05-15T02:02:25;96690.44;;;12.76
19102;BMP280;9683;49.028;12.064;2023-05-15T02:04:53;96691.31;;;12.81
19102;BMP280;9683;49.028;12.064;2023-05-15T02:07:21;96686.31;;;12.90
19102;BMP280;9683;49.028;12.064;2023-05-15T02:09:48;96674.72;;;12.79
19102;BMP280;9683;49.028;12.064;2023-05-15T02:12:17;96698.84;;;12.90
19102;BMP280;9683;49.028;12.064;2023-05-15T02:14:45;96700.41;;;12.85
19102;BMP280;9683;49.028;12.064;2023-05-15T02:17:13;96697.09;;;12.73
19102;BMP280;9683;49.028;12.064;2023-05-15T02:19:41;96684.25;;;12.70
19102;BMP280;9683;49.028;12.064;2023-05-15T02:22:08;96692.84;;;12.77
19102;BMP280;9683;49.028;12.064;2023-05-15T02:24:35;96658.50;;;12.59
19102;BMP280;9683;49.028;12.064;2023-05-15T02:27:06;96697.59;;;12.70
19102;BMP280;9683;49.028;12.064;2023-05-15T02:29:41;96699.41;;;12.65
19102;BMP280;9683;49.028;12.064;2023-05-15T02:32:21;96699.47;;;12.70
19102;BMP280;9683;49.028;12.064;2023-05-15T02:35:02;96694.59;;;12.67
19102;BMP280;9683;49.028;12.064;2023-05-15T02:37:36;96687.47;;;12.72
19102;BMP280;9683;49.028;12.064;2023-05-15T02:40:06;96682.78;;;12.58
19102;BMP280;9683;49.028;12.064;2023-05-15T02:42:35;96690.22;;;12.56
19102;BMP280;9683;49.028;12.064;2023-05-15T02:45:03;96672.53;;;12.50
19102;BMP280;9683;49.028;12.064;2023-05-15T02:47:31;96681.16;;;12.57
19102;BMP280;9683;49.028;12.064;2023-05-15T02:50:00;96675.06;;;12.61
19102;BMP280;9683;49.028;12.064;2023-05-15T02:52:27;96681.25;;;12.67
19102;BMP280;9683;49.028;12.064;2023-05-15T02:54:54;96673.38;;;12.77
19102;BMP280;9683;49.028;12.064;2023-05-15T02:57:21;96680.03;;;12.74
19102;BMP280;9683;49.028;12.064;2023-05-15T02:59:47;96674.97;;;12.78
19102;BMP280;9683;49.028;12.064;2023-05-15T03:02:14;96665.72;;;12.85
19102;BMP280;9683;49.028;12.064;2023-05-15T03:04:41;96676.03;;;13.04
19102;BMP280;9683;49.028;12.064;2023-05-15T03:07:09;96668.50;;;12.96
19102;BMP280;9683;49.028;12.064;2023-05-15T03:09:35;96659.91;;;12.94
19102;BMP280;9683;49.028;12.064;2023-05-15T03:12:02;96687.09;;;13.12
19102;BMP280;9683;49.028;12.064;2023-05-15T03:14:29;96666.94;;;13.05
19102;BMP280;9683;49.028;12.064;2023-05-15T03:16:56;96680.19;;;13.16
19102;BMP280;9683;49.028;12.064;2023-05-15T03:19:23;96684.97;;;13.14
19102;BMP280;9683;49.028;12.064;2023-05-15T03:21:49;96671.31;;;13.11
19102;BMP280;9683;49.028;12.064;2023-05-15T03:24:17;96673.59;;;13.24
19102;BMP280;9683;49.028;12.064;2023-05-15T03:26:44;96666.38;;;13.24
19102;BMP280;9683;49.028;12.064;2023-05-15T03:29:10;96673.94;;;13.32
19102;BMP280;9683;49.028;12.064;2023-05-15T03:31:37;96671.78;;;13.35
19102;BMP280;9683;49.028;12.064;2023-05-15T03:34:04;96673.16;;;13.37
19102;BMP280;9683;49.028;12.064;2023-05-15T03:36:30;96668.91;;;13.41
19102;BMP280;9683;49.028;12.064;2023-05-15T03:38:57;96662.25;;;13.44
19102;BMP280;9683;49.028;12.064;2023-05-15T03:41:25;96678.31;;;13.49
19102;BMP280;9683;49.028;12.064;2023-05-15T03:43:52;96671.06;;;13.44
19102;BMP280;9683;49.028;12.064;2023-05-15T03:46:18;96663.78;;;13.35
19102;BMP280;9683;49.028;12.064;2023-05-15T03:48:45;96667.78;;;13.32
19102;BMP280;9683;49.028;12.064;2023-05-15T03:51:12;96670.38;;;13.27
19102;BMP280;9683;49.028;12.064;2023-05-15T03:53:38;96678.47;;;13.32
19102;BMP280;9683;49.028;12.064;2023-05-15T03:56:05;96668.34;;;13.34
19102;BMP280;9683;49.028;12.064;2023-05-15T03:58:33;96668.66;;;13.43
19102;BMP280;9683;49.028;12.064;2023-05-15T04:01:00;96664.16;;;13.48
19102;BMP280;9683;49.028;12.064;2023-05-15T04:03:26;96666.78;;;13.43
19102;BMP280;9683;49.028;12.064;2023-05-15T04:05:53;96654.75;;;13.41
19102;BMP280;9683;49.028;12.064;2023-05-15T04:08:20;96658.28;;;13.51
19102;BMP280;9683;49.028;12.064;2023-05-15T04:10:46;96661.28;;;13.55
19102;BMP280;9683;49.028;12.064;2023-05-15T04:13:13;96659.44;;;13.60
19102;BMP280;9683;49.028;12.064;2023-05-15T04:15:41;96658.94;;;13.63
19102;BMP280;9683;49.028;12.064;2023-05-15T04:18:09;96656.53;;;13.67
19102;BMP280;9683;49.028;12.064;2023-05-15T04:20:35;96657.09;;;13.69
19102;BMP280;9683;49.028;12.064;2023-05-15T04:23:02;96665.66;;;13.71
19102;BMP280;9683;49.028;12.064;2023-05-15T04:25:30;96663.28;;;13.74
19102;BMP280;9683;49.028;12.064;2023-05-15T04:27:56;96657.38;;;13.72
19102;BMP280;9683;49.028;12.064;2023-05-15T04:30:23;96655.78;;;13.76
19102;BMP280;9683;49.028;12.064;2023-05-15T04:32:51;96660.88;;;13.78
19102;BMP280;9683;49.028;12.064;2023-05-15T04:35:18;96661.69;;;13.78
19102;BMP280;9683;49.028;12.064;2023-05-15T04:37:44;96635.41;;;13.65
19102;BMP280;9683;49.028;12.064;2023-05-15T04:40:12;96657.44;;;13.83
19102;BMP280;9683;49.028;12.064;2023-05-15T04:42:40;96663.84;;;13.82
19102;BMP280;9683;49.028;12.064;2023-05-15T04:45:07;96642.69;;;13.75
19102;BMP280;9683;49.028;12.064;2023-05-15T04:47:35;96669.22;;;13.87
19102;BMP280;9683;49.028;12.064;2023-05-15T04:50:03;96661.50;;;13.90
19102;BMP280;9683;49.028;12.064;2023-05-15T04:52:31;96665.78;;;13.91
19102;BMP280;9683;49.028;12.064;2023-05-15T04:54:57;96658.56;;;13.92
19102;BMP280;9683;49.028;12.064;2023-05-15T04:57:24;96653.22;;;13.92
19102;BMP280;9683;49.028;12.064;2023-05-15T04:59:50;96659.88;;;13.89
19102;BMP280;9683;49.028;12.064;2023-05-15T05:02:19;96664.19;;;13.95
19102;BMP280;9683;49.028;12.064;2023-05-15T05:04:45;96669.56;;;13.95
19102;BMP280;9683;49.028;12.064;2023-05-15T05:07:13;96669.31;;;13.97
19102;BMP280;9683;49.028;12.064;2023-05-15T05:09:40;96670.09;;;13.97
19102;BMP280;9683;49.028;12.064;2023-05-15T05:12:07;96670.88;;;13.98
19102;BMP280;9683;49.028;12.064;2023-05-15T05:14:34;96667.41;;;13.97
19102;BMP280;9683;49.028;12.064;2023-05-15T05:17:01;96665.53;;;13.98
19102;BMP280;9683;49.028;12.064;2023-05-15T05:19:27;96644.59;;;13.85
19102;BMP280;9683;49.028;12.064;2023-05-15T05:21:54;96662.06;;;13.97
19102;BMP280;9683;49.028;12.064;2023-05-15T05:24:24;96671.69;;;13.98
19102;BMP280;9683;49.028;12.064;2023-05-15T05:26:50;96669.31;;;13.97
19102;BMP280;9683;49.028;12.064;2023-05-15T05:29:17;96669.03;;;13.98
19102;BMP280;9683;49.028;12.064;2023-05-15T05:31:45;96671.22;;;14.01
19102;BMP280;9683;49.028;12.064;2023-05-15T05:34:12;96677.34;;;14.02
19102;BMP280;9683;49.028;12.064;2023-05-15T05:36:38;96678.94;;;14.03
19102;BMP280;9683;49.028;12.064;2023-05-15T05:39:05;96682.44;;;14.03
19102;BMP280;9683;49.028;12.064;2023-05-15T05:41:33;96682.19;;;14.05
19102;BMP280;9683;49.028;12.064;2023-05-15T05:44:00;96689.13;;;14.06
19102;BMP280;9683;49.028;12.064;2023-05-15T05:46:27;96663.94;;;13.97
19102;BMP280;9683;49.028;12.064;2023-05-15T05:48:54;96681.94;;;14.11
19102;BMP280;9683;49.028;12.064;2023-05-15T05:51:20;96684.09;;;14.14
19102;BMP280;9683;49.028;12.064;2023-05-15T05:53:47;96676.88;;;14.15
19102;BMP280;9683;49.028;12.064;2023-05-15T05:56:13;96684.13;;;14.19
19102;BMP280;9683;49.028;12.064;2023-05-15T05:58:41;96680.13;;;14.22
19102;BMP280;9683;49.028;12.064;2023-05-15T06:01:08;96666.13;;;14.10
19102;BMP280;9683;49.028;12.064;2023-05-15T06:03:36;96680.13;;;14.27
19102;BMP280;9683;49.028;12.064;2023-05-15T06:06:04;96678.03;;;14.29
19102;BMP280;9683;49.028;12.064;2023-05-15T06:08:31;96666.44;;;14.18
19102;BMP280;9683;49.028;12.064;2023-05-15T06:10:58;96681.78;;;14.33
19102;BMP280;9683;49.028;12.064;2023-05-15T06:13:25;96682.91;;;14.37
19102;BMP280;9683;49.028;12.064;2023-05-15T06:15:53;96682.13;;;14.42
19102;BMP280;9683;49.028;12.064;2023-05-15T06:18:20;96679.72;;;14.45
19102;BMP280;9683;49.028;12.064;2023-05-15T06:20:46;96655.88;;;14.39
19102;BMP280;9683;49.028;12.064;2023-05-15T06:23:13;96682.97;;;14.52
19102;BMP280;9683;49.028;12.064;2023-05-15T06:25:40;96676.00;;;14.56
19102;BMP280;9683;49.028;12.064;2023-05-15T06:28:06;96677.91;;;14.61
19102;BMP280;9683;49.028;12.064;2023-05-15T06:30:33;96676.84;;;14.62
19102;BMP280;9683;49.028;12.064;2023-05-15T06:33:01;96679.28;;;14.63
19102;BMP280;9683;49.028;12.064;2023-05-15T06:35:27;96676.03;;;14.61
19102;BMP280;9683;49.028;12.064;2023-05-15T06:37:54;96675.78;;;14.63
19102;BMP280;9683;49.028;12.064;2023-05-15T06:40:21;96679.00;;;14.65
19102;BMP280;9683;49.028;12.064;2023-05-15T06:42:48;96679.53;;;14.67
19102;BMP280;9683;49.028;12.064;2023-05-15T06:45:14;96679.00;;;14.65
19102;BMP280;9683;49.028;12.064;2023-05-15T06:47:41;96680.06;;;14.69
19102;BMP280;9683;49.028;12.064;2023-05-15T06:50:09;96690.81;;;14.74
19102;BMP280;9683;49.028;12.064;2023-05-15T06:52:36;96687.06;;;14.75
19102;BMP280;9683;49.028;12.064;2023-05-15T06:55:03;96692.69;;;14.79
19102;BMP280;9683;49.028;12.064;2023-05-15T06:57:32;96684.94;;;14.77
19102;BMP280;9683;49.028;12.064;2023-05-15T06:59:58;96679.28;;;14.74
19102;BMP280;9683;49.028;12.064;2023-05-15T07:02:25;96683.03;;;14.78
19102;BMP280;9683;49.028;12.064;2023-05-15T07:04:52;96684.13;;;14.82
19102;BMP280;9683;49.028;12.064;2023-05-15T07:07:20;96694.59;;;14.88
19102;BMP280;9683;49.028;12.064;2023-05-15T07:09:46;96684.16;;;14.92
19102;BMP280;9683;49.028;12.064;2023-05-15T07:12:14;96685.00;;;14.97
19102;BMP280;9683;49.028;12.064;2023-05-15T07:14:41;96688.75;;;15.01
19102;BMP280;9683;49.028;12.064;2023-05-15T07:17:07;96680.97;;;15.05
19102;BMP280;9683;49.028;12.064;2023-05-15T07:19:34;96682.31;;;15.07
19102;BMP280;9683;49.028;12.064;2023-05-15T07:22:01;96690.63;;;15.11
19102;BMP280;9683;49.028;12.064;2023-05-15T07:24:28;96681.78;;;15.15
19102;BMP280;9683;49.028;12.064;2023-05-15T07:26:55;96681.53;;;15.17
19102;BMP280;9683;49.028;12.064;2023-05-15T07:29:22;96683.41;;;15.22
19102;BMP280;9683;49.028;12.064;2023-05-15T07:31:48;96679.91;;;15.21
19102;BMP280;9683;49.028;12.064;2023-05-15T07:34:15;96679.38;;;15.24
19102;BMP280;9683;49.028;12.064;2023-05-15T07:36:42;96683.13;;;15.28
19102;BMP280;9683;49.028;12.064;2023-05-15T07:39:09;96668.94;;;15.23
19102;BMP280;9683;49.028;12.064;2023-05-15T07:41:37;96672.41;;;15.33
19102;BMP280;9683;49.028;12.064;2023-05-15T07:44:03;96669.47;;;15.35
19102;BMP280;9683;49.028;12.064;2023-05-15T07:46:30;96668.94;;;15.38
19102;BMP280;9683;49.028;12.064;2023-05-15T07:48:56;96674.84;;;15.40
19102;BMP280;9683;49.028;12.064;2023-05-15T07:51:23;96675.38;;;15.42
19102;BMP280;9683;49.028;12.064;2023-05-15T07:53:50;96673.75;;;15.41
19102;BMP280;9683;49.028;12.064;2023-05-15T07:56:16;96670.81;;;15.42
19102;BMP280;9683;49.028;12.064;2023-05-15T07:58:44;96668.69;;;15.44
19102;BMP280;9683;49.028;12.064;2023-05-15T08:01:11;96675.94;;;15.44
19102;BMP280;9683;49.028;12.064;2023-05-15T08:03:38;96673.25;;;15.44
19102;BMP280;9683;49.028;12.064;2023-05-15T08:06:04;96677.25;;;15.46
19102;BMP280;9683;49.028;12.064;2023-05-15T08:08:32;96672.44;;;15.48
19102;BMP280;9683;49.028;12.064;2023-05-15T08:10:59;96672.72;;;15.52
19102;BMP280;9683;49.028;12.064;2023-05-15T08:13:25;96674.88;;;15.55
19102;BMP280;9683;49.028;12.064;2023-05-15T08:15:54;96677.81;;;15.64
19102;BMP280;9683;49.028;12.064;2023-05-15T08:18:20;96674.59;;;15.67
19102;BMP280;9683;49.028;12.064;2023-05-15T08:20:48;96673.53;;;15.73
19102;BMP280;9683;49.028;12.064;2023-05-15T08:23:14;96669.75;;;15.79
19102;BMP280;9683;49.028;12.064;2023-05-15T08:25:41;96675.09;;;15.84
19102;BMP280;9683;49.028;12.064;2023-05-15T08:28:09;96676.97;;;15.88
19102;BMP280;9683;49.028;12.064;2023-05-15T08:30:36;96665.97;;;15.95
19102;BMP280;9683;49.028;12.064;2023-05-15T08:33:03;96628.19;;;15.71
19102;BMP280;9683;49.028;12.064;2023-05-15T08:35:30;96677.50;;;16.05
19102;BMP280;9683;49.028;12.064;2023-05-15T08:37:57;96675.34;;;16.08
19102;BMP280;9683;49.028;12.064;2023-05-15T08:40:24;96676.13;;;16.13
19102;BMP280;9683;49.028;12.064;2023-05-15T08:42:53;96672.88;;;16.21
19102;BMP280;9683;49.028;12.064;2023-05-15T08:45:21;96666.69;;;16.26
19102;BMP280;9683;49.028;12.064;2023-05-15T08:47:47;96678.75;;;16.33
19102;BMP280;9683;49.028;12.064;2023-05-15T08:50:16;96669.59;;;16.39
19102;BMP280;9683;49.028;12.064;2023-05-15T08:52:44;96667.97;;;16.43
19102;BMP280;9683;49.028;12.064;2023-05-15T08:55:12;96657.22;;;16.43
19102;BMP280;9683;49.028;12.064;2023-05-15T08:57:39;96659.34;;;16.51
19102;BMP280;9683;49.028;12.064;2023-05-15T09:00:07;96662.84;;;16.57
19102;BMP280;9683;49.028;12.064;2023-05-15T09:02:34;96655.53;;;16.63
19102;BMP280;9683;49.028;12.064;2023-05-15T09:05:01;96659.03;;;16.68
19102;BMP280;9683;49.028;12.064;2023-05-15T09:07:30;96664.13;;;16.75
19102;BMP280;9683;49.028;12.064;2023-05-15T09:09:58;96654.41;;;16.79
19102;BMP280;9683;49.028;12.064;2023-05-15T09:12:25;96657.03;;;16.84
19102;BMP280;9683;49.028;12.064;2023-05-15T09:15:07;96649.25;;;16.87
19102;BMP280;9683;49.028;12.064;2023-05-15T09:17:33;96653.25;;;16.90
19102;BMP280;9683;49.028;12.064;2023-05-15T09:20:01;96657.00;;;16.94
19102;BMP280;9683;49.028;12.064;2023-05-15T09:22:33;96655.94;;;16.95
19102;BMP280;9683;49.028;12.064;2023-05-15T09:24:59;96650.84;;;16.88
19102;BMP280;9683;49.028;12.064;2023-05-15T09:27:27;96646.28;;;16.89
19102;BMP280;9683;49.028;12.064;2023-05-15T09:29:54;96640.91;;;16.89
19102;BMP280;9683;49.028;12.064;2023-05-15T09:32:25;96638.22;;;16.89
19102;BMP280;9683;49.028;12.064;2023-05-15T09:34:52;96650.56;;;16.90
19102;BMP280;9683;49.028;12.064;2023-05-15T09:37:30;96649.75;;;16.94
19102;BMP280;9683;49.028;12.064;2023-05-15T09:40:06;96642.19;;;16.96
19102;BMP280;9683;49.028;12.064;2023-05-15T09:42:35;96627.75;;;16.87
19102;BMP280;9683;49.028;12.064;2023-05-15T09:45:01;96645.16;;;17.00
19102;BMP280;9683;49.028;12.064;2023-05-15T09:47:28;96646.97;;;17.05
19102;BMP280;9683;49.028;12.064;2023-05-15T09:49:55;96645.88;;;17.11
19102;BMP280;9683;49.028;12.064;2023-05-15T09:52:21;96646.66;;;17.16
19102;BMP280;9683;49.028;12.064;2023-05-15T09:54:50;96632.06;;;17.22
19102;BMP280;9683;49.028;12.064;2023-05-15T09:57:20;96637.41;;;17.27
19102;BMP280;9683;49.028;12.064;2023-05-15T09:59:47;96630.91;;;17.33
19102;BMP280;9683;49.028;12.064;2023-05-15T10:02:22;96629.50;;;17.41
19102;BMP280;9683;49.028;12.064;2023-05-15T10:04:53;96625.97;;;17.46
19102;BMP280;9683;49.028;12.064;2023-05-15T10:07:26;96628.09;;;17.49
19102;BMP280;9683;49.028;12.064;2023-05-15T10:09:54;96626.44;;;17.53
19102;BMP280;9683;49.028;12.064;2023-05-15T10:12:22;96630.16;;;17.57
19102;BMP280;9683;49.028;12.064;2023-05-15T10:14:49;96618.59;;;17.61
19102;BMP280;9683;49.028;12.064;2023-05-15T10:17:18;96614.00;;;17.57
19102;BMP280;9683;49.028;12.064;2023-05-15T10:19:46;96604.34;;;17.56
19102;BMP280;9683;49.028;12.064;2023-05-15T10:22:15;96596.81;;;17.58
19102;BMP280;9683;49.028;12.064;2023-05-15T10:24:46;96605.88;;;17.67
19102;BMP280;9683;49.028;12.064;2023-05-15T10:27:15;96610.13;;;17.73
19102;BMP280;9683;49.028;12.064;2023-05-15T10:29:43;96605.22;;;17.80
19102;BMP280;9683;49.028;12.064;2023-05-15T10:32:11;96598.69;;;17.86
19102;BMP280;9683;49.028;12.064;2023-05-15T10:34:38;96601.91;;;17.88
19102;BMP280;9683;49.028;12.064;2023-05-15T10:37:05;96597.25;;;17.94
19102;BMP280;9683;49.028;12.064;2023-05-15T10:39:34;96596.13;;;18.00
19102;BMP280;9683;49.028;12.064;2023-05-15T10:42:03;96601.44;;;18.05
19102;BMP280;9683;49.028;12.064;2023-05-15T10:44:31;96585.50;;;18.08
19102;BMP280;9683;49.028;12.064;2023-05-15T10:46:58;96592.97;;;18.16
19102;BMP280;9683;49.028;12.064;2023-05-15T10:49:26;96579.44;;;18.21
19102;BMP280;9683;49.028;12.064;2023-05-15T10:51:52;96584.75;;;18.26
19102;BMP280;9683;49.028;12.064;2023-05-15T10:54:20;96582.28;;;18.30
19102;BMP280;9683;49.028;12.064;2023-05-15T10:56:47;96581.91;;;18.37
19102;BMP280;9683;49.028;12.064;2023-05-15T10:59:13;96579.22;;;18.37
19102;BMP280;9683;49.028;12.064;2023-05-15T11:01:41;96581.84;;;18.42
19102;BMP280;9683;49.028;12.064;2023-05-15T11:04:10;96580.47;;;18.44
19102;BMP280;9683;49.028;12.064;2023-05-15T11:06:39;96588.28;;;18.46
19102;BMP280;9683;49.028;12.064;2023-05-15T11:12:10;96589.88;;;18.47
19102;BMP280;9683;49.028;12.064;2023-05-15T11:14:40;96562.84;;;18.33
19102;BMP280;9683;49.028;12.064;2023-05-15T11:17:09;96578.25;;;18.51
19102;BMP280;9683;49.028;12.064;2023-05-15T11:19:38;96572.03;;;18.51
19102;BMP280;9683;49.028;12.064;2023-05-15T11:22:17;96570.69;;;18.53
19102;BMP280;9683;49.028;12.064;2023-05-15T11:24:50;96565.00;;;18.55
19102;BMP280;9683;49.028;12.064;2023-05-15T11:27:18;96561.22;;;18.56
19102;BMP280;9683;49.028;12.064;2023-05-15T11:32:48;96559.16;;;18.66
19102;BMP280;9683;49.028;12.064;2023-05-15T11:35:20;96559.09;;;18.71
19102;BMP280;9683;49.028;12.064;2023-05-15T11:37:49;96549.84;;;18.77
19102;BMP280;9683;49.028;12.064;2023-05-15T11:40:20;96554.56;;;18.86
19102;BMP280;9683;49.028;12.064;2023-05-15T11:43:05;96548.00;;;18.92
19102;BMP280;9683;49.028;12.064;2023-05-15T11:45:35;96556.03;;;18.97
19102;BMP280;9683;49.028;12.064;2023-05-15T11:48:05;96562.72;;;18.99
19102;BMP280;9683;49.028;12.064;2023-05-15T11:50:33;96577.81;;;19.00
19102;BMP280;9683;49.028;12.064;2023-05-15T11:53:04;96582.91;;;19.02
19102;BMP280;9683;49.028;12.064;2023-05-15T11:55:32;96575.13;;;19.00
19102;BMP280;9683;49.028;12.064;2023-05-15T11:57:58;96588.59;;;19.00
19102;BMP280;9683;49.028;12.064;2023-05-15T12:00:25;96575.41;;;18.99
19102;BMP280;9683;49.028;12.064;2023-05-15T12:02:52;96569.50;;;18.97
19102;BMP280;9683;49.028;12.064;2023-05-15T12:05:20;96564.91;;;18.97
19102;BMP280;9683;49.028;12.064;2023-05-15T12:07:47;96558.78;;;18.92
19102;BMP280;9683;49.028;12.064;2023-05-15T12:10:13;96552.09;;;18.89
19102;BMP280;9683;49.028;12.064;2023-05-15T12:12:41;96544.28;;;18.88
19102;BMP280;9683;49.028;12.064;2023-05-15T12:15:09;96546.47;;;18.86
19102;BMP280;9683;49.028;12.064;2023-05-15T12:17:36;96543.88;;;18.81
19102;BMP280;9683;49.028;12.064;2023-05-15T12:20:04;96547.88;;;18.83
19102;BMP280;9683;49.028;12.064;2023-05-15T12:22:38;96544.28;;;18.88
19102;BMP280;9683;49.028;12.064;2023-05-15T12:25:06;96550.09;;;18.95
19102;BMP280;9683;49.028;12.064;2023-05-15T12:27:33;96559.13;;;19.04
19102;BMP280;9683;49.028;12.064;2023-05-15T12:30:02;96561.69;;;19.14
19102;BMP280;9683;49.028;12.064;2023-05-15T12:32:30;96567.50;;;19.21
19102;BMP280;9683;49.028;12.064;2023-05-15T12:34:57;96581.50;;;19.23
19102;BMP280;9683;49.028;12.064;2023-05-15T12:37:24;96576.88;;;19.23
19102;BMP280;9683;49.028;12.064;2023-05-15T12:39:54;96567.63;;;19.11
19102;BMP280;9683;49.028;12.064;2023-05-15T12:42:21;96586.66;;;19.19
19102;BMP280;9683;49.028;12.064;2023-05-15T12:44:51;96592.59;;;19.21
19102;BMP280;9683;49.028;12.064;2023-05-15T12:47:22;96600.69;;;19.21
19102;BMP280;9683;49.028;12.064;2023-05-15T12:49:49;96601.56;;;19.17
19102;BMP280;9683;49.028;12.064;2023-05-15T12:52:15;96602.44;;;19.12
19102;BMP280;9683;49.028;12.064;2023-05-15T12:54:43;96586.53;;;19.11
19102;BMP280;9683;49.028;12.064;2023-05-15T12:57:12;96571.75;;;19.08
19102;BMP280;9683;49.028;12.064;2023-05-15T12:59:40;96571.31;;;19.01
19102;BMP280;9683;49.028;12.064;2023-05-15T13:02:09;96574.59;;;18.98
19102;BMP280;9683;49.028;12.064;2023-05-15T13:04:35;96580.88;;;18.94
19102;BMP280;9683;49.028;12.064;2023-05-15T13:07:02;96576.38;;;18.89
19102;BMP280;9683;49.028;12.064;2023-05-15T13:09:29;96576.13;;;18.86
19102;BMP280;9683;49.028;12.064;2023-05-15T13:11:57;96570.03;;;18.80
19102;BMP280;9683;49.028;12.064;2023-05-15T13:14:26;96564.56;;;18.85
19102;BMP280;9683;49.028;12.064;2023-05-15T13:16:58;96555.38;;;18.86
19102;BMP280;9683;49.028;12.064;2023-05-15T13:19:25;96556.97;;;18.87
19102;BMP280;9683;49.028;12.064;2023-05-15T13:21:51;96551.56;;;18.87
19102;BMP280;9683;49.028;12.064;2023-05-15T13:24:18;96563.69;;;18.90
19102;BMP280;9683;49.028;12.064;2023-05-15T13:26:44;96566.38;;;18.90
19102;BMP280;9683;49.028;12.064;2023-05-15T13:29:11;96565.00;;;18.92
19102;BMP280;9683;49.028;12.064;2023-05-15T13:31:39;96566.72;;;19.02
19102;BMP280;9683;49.028;12.064;2023-05-15T13:34:05;96572.53;;;19.09
19102;BMP280;9683;49.028;12.064;2023-05-15T13:36:32;96558.84;;;19.05
19102;BMP280;9683;49.028;12.064;2023-05-15T13:38:58;96572.59;;;19.22
19102;BMP280;9683;49.028;12.064;2023-05-15T13:41:25;96570.59;;;19.28
19102;BMP280;9683;49.028;12.064;2023-05-15T13:43:52;96573.22;;;19.33
19102;BMP280;9683;49.028;12.064;2023-05-15T13:46:18;96572.53;;;19.41
19102;BMP280;9683;49.028;12.064;2023-05-15T13:48:46;96570.19;;;19.53
19102;BMP280;9683;49.028;12.064;2023-05-15T13:51:13;96565.22;;;19.60
19102;BMP280;9683;49.028;12.064;2023-05-15T13:53:39;96558.03;;;19.70
19102;BMP280;9683;49.028;12.064;2023-05-15T13:56:06;96554.84;;;19.81
19102;BMP280;9683;49.028;12.064;2023-05-15T13:58:33;96560.34;;;19.90
19102;BMP280;9683;49.028;12.064;2023-05-15T14:01:03;96559.84;;;20.01
19102;BMP280;9683;49.028;12.064;2023-05-15T14:03:30;96554.25;;;20.11
19102;BMP280;9683;49.028;12.064;2023-05-15T14:05:58;96561.03;;;20.23
19102;BMP280;9683;49.028;12.064;2023-05-15T14:08:25;96558.16;;;20.33
19102;BMP280;9683;49.028;12.064;2023-05-15T14:10:52;96558.44;;;20.45
19102;BMP280;9683;49.028;12.064;2023-05-15T14:13:18;96554.81;;;20.49
19102;BMP280;9683;49.028;12.064;2023-05-15T14:15:45;96560.31;;;20.58
19102;BMP280;9683;49.028;12.064;2023-05-15T14:18:11;96568.81;;;20.65
19102;BMP280;9683;49.028;12.064;2023-05-15T14:20:38;96564.28;;;20.74
19102;BMP280;9683;49.028;12.064;2023-05-15T14:23:06;96564.03;;;20.84